Time;durP1;ratioP1;P1;durP2;ratioP2;P2;SDS_P1;SDS_P2;PMS_P1;PMS_P2;Temp;Humidity;BMP_temperature;BMP_pressure;BME280_temperature;BME280_humidity;BME280_pressure;Samples;Min_cycle;Max_cycle;Signal;HPM_P1;HPM_P2
2023/09/10 00:00:49;;;;;;;8.57;3.58;;;18.40;99.90;;;;;;5092519;28;20047;-86
2023/09/10 00:03:16;;;;;;;5.18;3.72;;;18.30;99.90;;;;;;5091635;28;20107;-88
2023/09/10 00:05:41;;;;;;;8.00;4.43;;;18.30;99.90;;;;;;5091558;28;20028;-87
2023/09/10 00:08:07;;;;;;;9.57;4.00;;;18.30;99.90;;;;;;5091357;28;20054;-87
2023/09/10 00:10:33;;;;;;;9.55;3.95;;;18.30;99.90;;;;;;5092381;28;20089;-85
2023/09/10 00:12:58;;;;;;;6.05;3.53;;;18.20;99.90;;;;;;5092453;28;20031;-88
2023/09/10 00:15:24;;;;;;;5.85;3.88;;;18.20;99.90;;;;;;5092344;28;20050;-87
2023/09/10 00:17:51;;;;;;;6.30;3.67;;;18.20;99.90;;;;;;5091608;28;20036;-87
2023/09/10 00:20:17;;;;;;;6.68;3.58;;;18.30;99.90;;;;;;5092239;28;20020;-86
2023/09/10 00:22:42;;;;;;;10.57;4.60;;;18.20;99.90;;;;;;5091868;28;20548;-86
2023/09/10 00:25:09;;;;;;;6.60;3.90;;;18.20;99.90;;;;;;5091119;28;20758;-85
2023/09/10 00:27:35;;;;;;;7.20;3.97;;;18.20;99.90;;;;;;5089420;28;20024;-85
2023/09/10 00:30:01;;;;;;;9.95;4.05;;;18.20;99.90;;;;;;5090519;28;20066;-84
2023/09/10 00:32:26;;;;;;;5.78;3.58;;;18.20;99.90;;;;;;5090648;28;20071;-84
2023/09/10 00:34:52;;;;;;;6.18;3.75;;;18.20;99.90;;;;;;5089087;28;20101;-86
2023/09/10 00:37:18;;;;;;;8.70;4.15;;;18.20;99.90;;;;;;5091225;28;20069;-88
2023/09/10 00:39:44;;;;;;;7.57;4.40;;;18.10;99.90;;;;;;5090643;28;20072;-88
2023/09/10 00:42:10;;;;;;;6.15;3.70;;;18.10;99.90;;;;;;5091747;28;20028;-87
2023/09/10 00:44:41;;;;;;;7.72;3.70;;;18.10;99.90;;;;;;5090314;28;20038;-87
2023/09/10 00:47:08;;;;;;;11.23;4.13;;;18.20;99.90;;;;;;5090455;28;20028;-88
2023/09/10 00:49:35;;;;;;;5.65;3.25;;;18.10;99.90;;;;;;5092099;28;20028;-90
2023/09/10 00:52:02;;;;;;;6.35;3.95;;;18.10;99.90;;;;;;5090049;28;20033;-83
2023/09/10 00:54:34;;;;;;;5.93;3.45;;;18.10;99.90;;;;;;5088716;28;20405;-85
2023/09/10 00:57:01;;;;;;;7.95;4.00;;;18.10;99.90;;;;;;5090003;28;20055;-85
2023/09/10 00:59:30;;;;;;;8.13;3.35;;;18.00;99.90;;;;;;5089411;28;20024;-84
2023/09/10 01:01:58;;;;;;;6.15;3.33;;;18.00;99.90;;;;;;5088896;28;20107;-83
2023/09/10 01:04:23;;;;;;;9.85;4.28;;;18.10;99.90;;;;;;5089586;28;20028;-85
2023/09/10 01:06:51;;;;;;;9.32;4.22;;;18.10;99.90;;;;;;5088424;28;20028;-84
2023/09/10 01:09:17;;;;;;;7.35;3.40;;;18.10;99.90;;;;;;5089562;28;20450;-89
2023/09/10 01:12:09;;;;;;;8.48;4.03;;;18.10;99.90;;;;;;5091741;28;20088;-85
2023/09/10 01:14:37;;;;;;;5.82;3.83;;;18.10;99.90;;;;;;5091647;28;20020;-89
2023/09/10 01:17:15;;;;;;;6.50;4.38;;;18.10;99.90;;;;;;5090401;28;20457;-88
2023/09/10 01:19:43;;;;;;;5.97;4.07;;;18.00;99.90;;;;;;5092103;28;20024;-89
2023/09/10 01:22:25;;;;;;;7.65;4.40;;;18.00;99.90;;;;;;5091195;28;20035;-89
2023/09/10 01:24:52;;;;;;;7.95;4.22;;;17.90;99.90;;;;;;5091693;28;20180;-88
2023/09/10 01:27:18;;;;;;;9.13;3.75;;;17.90;99.90;;;;;;5090243;28;20050;-88
2023/09/10 01:29:44;;;;;;;6.80;4.10;;;17.80;99.90;;;;;;5092035;28;20036;-87
2023/09/10 01:32:32;;;;;;;7.72;3.83;;;17.80;99.90;;;;;;5090136;28;20051;-89
2023/09/10 01:35:32;;;;;;;8.95;3.75;;;17.70;99.90;;;;;;5087851;28;20115;-89
2023/09/10 01:38:02;;;;;;;8.20;4.00;;;17.70;99.90;;;;;;5090834;28;20024;-89
2023/09/10 01:40:41;;;;;;;8.85;4.00;;;17.70;99.90;;;;;;5096569;28;20031;-88
2023/09/10 01:43:07;;;;;;;6.18;3.80;;;17.70;99.90;;;;;;5096002;28;20100;-89
2023/09/10 01:45:36;;;;;;;6.80;4.20;;;17.60;99.90;;;;;;5096555;28;20020;-90
2023/09/10 01:48:03;;;;;;;7.15;3.90;;;17.60;99.90;;;;;;5095107;28;20396;-88
2023/09/10 01:50:31;;;;;;;7.05;4.20;;;17.60;99.90;;;;;;5095562;28;20032;-88
2023/09/10 01:52:58;;;;;;;8.23;4.47;;;17.50;99.90;;;;;;5095544;28;20027;-88
2023/09/10 01:55:25;;;;;;;7.63;3.33;;;17.50;99.90;;;;;;5093745;28;20020;-85
2023/09/10 01:57:54;;;;;;;9.27;4.70;;;17.60;99.90;;;;;;5094156;28;20024;-84
2023/09/10 02:00:21;;;;;;;6.32;3.92;;;17.60;99.90;;;;;;5094516;28;20089;-87
2023/09/10 02:02:46;;;;;;;7.28;4.03;;;17.60;99.90;;;;;;5093743;28;20039;-87
2023/09/10 02:05:12;;;;;;;8.43;4.60;;;17.60;99.90;;;;;;5095102;28;20034;-88
2023/09/10 02:07:38;;;;;;;7.15;4.05;;;17.70;99.90;;;;;;5094276;28;20028;-88
2023/09/10 02:10:04;;;;;;;6.32;3.85;;;17.70;99.90;;;;;;5095153;28;20066;-88
2023/09/10 02:12:29;;;;;;;7.72;3.85;;;17.80;99.90;;;;;;5095298;28;20027;-88
2023/09/10 02:14:58;;;;;;;8.60;3.45;;;17.70;99.90;;;;;;5094096;28;20020;-88
2023/09/10 02:17:24;;;;;;;6.72;3.47;;;17.70;99.90;;;;;;5094964;28;20050;-86
2023/09/10 02:19:49;;;;;;;5.38;3.35;;;17.70;99.90;;;;;;5094990;28;20020;-89
2023/09/10 02:22:15;;;;;;;6.15;3.83;;;17.70;99.90;;;;;;5094444;28;20032;-89
2023/09/10 02:24:41;;;;;;;6.88;3.85;;;17.70;99.90;;;;;;5093332;28;20035;-88
2023/09/10 02:27:06;;;;;;;7.80;4.35;;;17.70;99.90;;;;;;5094460;28;20039;-85
2023/09/10 02:29:32;;;;;;;7.35;3.58;;;17.70;99.90;;;;;;5093773;28;20020;-88
2023/09/10 02:31:58;;;;;;;5.15;3.50;;;17.70;99.90;;;;;;5094134;28;20036;-86
2023/09/10 02:34:23;;;;;;;6.95;3.80;;;17.70;99.90;;;;;;5093281;28;20066;-86
2023/09/10 02:36:49;;;;;;;8.77;3.92;;;17.60;99.90;;;;;;5094559;28;20028;-88
2023/09/10 02:39:14;;;;;;;8.98;3.55;;;17.70;99.90;;;;;;5093136;28;20020;-88
2023/09/10 02:41:40;;;;;;;7.95;4.22;;;17.70;99.90;;;;;;5094548;28;20028;-88
2023/09/10 02:44:06;;;;;;;6.00;3.80;;;17.70;99.90;;;;;;5093053;28;20020;-88
2023/09/10 02:46:31;;;;;;;6.68;4.20;;;17.60;99.90;;;;;;5093743;28;20032;-88
2023/09/10 02:48:57;;;;;;;5.93;3.67;;;17.60;99.90;;;;;;5094553;28;20098;-89
2023/09/10 02:51:23;;;;;;;4.57;3.03;;;17.50;99.90;;;;;;5093092;28;20032;-88
2023/09/10 02:53:48;;;;;;;7.05;3.95;;;17.50;99.90;;;;;;5094448;28;20059;-86
2023/09/10 02:56:14;;;;;;;9.48;4.13;;;17.50;99.90;;;;;;5094507;28;20662;-87
2023/09/10 02:58:41;;;;;;;6.47;3.55;;;17.50;99.90;;;;;;5093285;28;20386;-88
2023/09/10 03:01:06;;;;;;;8.52;4.55;;;17.50;99.90;;;;;;5092815;28;20028;-87
2023/09/10 03:03:33;;;;;;;7.50;3.90;;;17.40;99.90;;;;;;5092677;28;20120;-88
2023/09/10 03:05:58;;;;;;;7.82;3.95;;;17.40;99.90;;;;;;5093080;28;20543;-89
2023/09/10 03:08:24;;;;;;;10.50;4.45;;;17.40;99.90;;;;;;5092943;28;20074;-88
2023/09/10 03:10:50;;;;;;;6.63;4.32;;;17.40;99.90;;;;;;5093107;28;20028;-87
2023/09/10 03:13:15;;;;;;;9.60;4.30;;;17.30;99.90;;;;;;5093826;28;20093;-89
2023/09/10 03:15:41;;;;;;;6.60;4.00;;;17.30;99.90;;;;;;5093348;28;20149;-86
2023/09/10 03:18:06;;;;;;;9.60;5.00;;;17.30;99.90;;;;;;5092866;28;20035;-86
2023/09/10 03:20:32;;;;;;;7.28;4.35;;;17.30;99.90;;;;;;5092201;28;20449;-87
2023/09/10 03:22:59;;;;;;;7.13;4.55;;;17.30;99.90;;;;;;5093105;28;20109;-88
2023/09/10 03:25:25;;;;;;;5.68;3.90;;;17.30;99.90;;;;;;5092757;28;20034;-86
2023/09/10 03:27:51;;;;;;;6.65;3.70;;;17.20;99.90;;;;;;5093743;28;20024;-87
2023/09/10 03:30:17;;;;;;;7.65;4.00;;;17.20;99.90;;;;;;5093007;28;20046;-88
2023/09/10 03:32:43;;;;;;;8.15;3.97;;;17.20;99.90;;;;;;5093306;28;20029;-88
2023/09/10 03:35:11;;;;;;;9.82;4.30;;;17.20;99.90;;;;;;5092863;28;20496;-89
2023/09/10 03:37:36;;;;;;;5.18;3.70;;;17.20;99.90;;;;;;5092585;28;20017;-88
2023/09/10 03:40:05;;;;;;;6.85;3.78;;;17.20;99.90;;;;;;5093973;28;20031;-89
2023/09/10 03:42:31;;;;;;;7.15;4.18;;;17.20;99.90;;;;;;5090457;28;20039;-90
2023/09/10 03:44:57;;;;;;;7.95;4.40;;;17.20;99.90;;;;;;5091245;28;20107;-89
2023/09/10 03:47:22;;;;;;;9.50;4.30;;;17.20;99.90;;;;;;5091838;28;20035;-86
2023/09/10 03:49:48;;;;;;;7.45;4.10;;;17.20;99.90;;;;;;5092462;28;20028;-89
2023/09/10 03:52:16;;;;;;;9.80;4.07;;;17.20;99.90;;;;;;5091710;28;20039;-86
2023/09/10 03:54:42;;;;;;;12.65;4.05;;;17.20;99.90;;;;;;5092354;28;20504;-87
2023/09/10 03:57:08;;;;;;;8.63;4.20;;;17.20;99.90;;;;;;5092630;28;20042;-87
2023/09/10 03:59:33;;;;;;;9.88;4.20;;;17.20;99.90;;;;;;5092889;28;20080;-86
2023/09/10 04:01:59;;;;;;;6.75;4.72;;;17.10;99.90;;;;;;5092040;28;20063;-85
2023/09/10 04:04:25;;;;;;;10.02;4.80;;;17.20;99.90;;;;;;5092446;28;20043;-86
2023/09/10 04:06:51;;;;;;;8.70;4.03;;;17.10;99.90;;;;;;5092535;28;20032;-88
2023/09/10 04:09:17;;;;;;;5.85;3.67;;;17.20;99.90;;;;;;5092939;28;20032;-89
2023/09/10 04:11:43;;;;;;;8.10;4.50;;;17.20;99.90;;;;;;5093080;28;20389;-87
2023/09/10 04:14:08;;;;;;;10.38;4.45;;;17.20;99.90;;;;;;5092946;28;20024;-87
2023/09/10 04:16:34;;;;;;;7.30;4.22;;;17.20;99.90;;;;;;5092615;28;20095;-87
2023/09/10 04:18:59;;;;;;;11.27;4.15;;;17.20;99.90;;;;;;5092641;28;20035;-89
2023/09/10 04:21:25;;;;;;;9.70;4.22;;;17.20;99.90;;;;;;5091293;28;20024;-87
2023/09/10 04:23:51;;;;;;;6.97;4.18;;;17.20;99.90;;;;;;5092918;28;20032;-88
2023/09/10 04:26:16;;;;;;;6.45;4.20;;;17.20;99.90;;;;;;5092688;28;20020;-87
2023/09/10 04:28:42;;;;;;;6.55;4.13;;;17.30;99.90;;;;;;5091313;28;20054;-87
2023/09/10 04:31:14;;;;;;;7.85;4.28;;;17.30;99.90;;;;;;5091952;28;20082;-87
2023/09/10 04:33:39;;;;;;;7.38;4.35;;;17.30;99.90;;;;;;5091654;28;20032;-86
2023/09/10 04:36:05;;;;;;;8.32;4.10;;;17.30;99.90;;;;;;5092213;28;20062;-89
2023/09/10 04:38:31;;;;;;;9.60;4.10;;;17.30;99.90;;;;;;5091905;28;20034;-88
2023/09/10 04:40:56;;;;;;;7.47;4.10;;;17.30;99.90;;;;;;5091505;28;20043;-89
2023/09/10 04:43:22;;;;;;;7.28;4.32;;;17.40;99.90;;;;;;5089862;28;20039;-89
2023/09/10 04:45:48;;;;;;;6.20;4.10;;;17.40;99.90;;;;;;5092682;28;20103;-86
2023/09/10 04:48:14;;;;;;;4.85;3.70;;;17.50;99.90;;;;;;5091215;28;20024;-85
2023/09/10 04:50:40;;;;;;;6.32;3.70;;;17.50;99.90;;;;;;5090243;28;20040;-86
2023/09/10 04:53:06;;;;;;;12.20;5.22;;;17.60;99.90;;;;;;5090671;28;20024;-86
2023/09/10 04:55:31;;;;;;;6.25;4.07;;;17.70;99.90;;;;;;5091241;28;20032;-88
2023/09/10 04:57:57;;;;;;;11.35;4.10;;;17.70;99.90;;;;;;5092412;28;20172;-88
2023/09/10 05:00:22;;;;;;;13.98;4.28;;;17.90;99.90;;;;;;5091716;28;20048;-88
2023/09/10 05:02:48;;;;;;;6.78;4.82;;;18.10;99.90;;;;;;5091979;28;20032;-85
2023/09/10 05:05:14;;;;;;;6.57;3.92;;;18.20;99.90;;;;;;5091868;28;20032;-85
2023/09/10 05:07:40;;;;;;;6.47;3.80;;;18.30;99.90;;;;;;5092084;28;20028;-88
2023/09/10 05:10:06;;;;;;;13.88;3.30;;;18.40;99.90;;;;;;5091271;28;20508;-84
2023/09/10 05:12:32;;;;;;;13.20;4.18;;;18.40;99.90;;;;;;5090025;28;20028;-86
2023/09/10 05:14:58;;;;;;;11.48;4.13;;;18.50;99.90;;;;;;5095245;28;20480;-86
2023/09/10 05:17:23;;;;;;;6.30;3.53;;;18.50;99.90;;;;;;5094576;28;20472;-85
2023/09/10 05:19:50;;;;;;;6.45;3.92;;;18.80;99.90;;;;;;5095355;28;20052;-83
2023/09/10 05:22:16;;;;;;;7.32;4.13;;;19.20;99.90;;;;;;5095241;28;20046;-84
2023/09/10 05:24:42;;;;;;;6.45;4.85;;;19.50;99.90;;;;;;5095380;28;20430;-84
2023/09/10 05:27:07;;;;;;;6.32;4.22;;;20.00;99.90;;;;;;5095237;28;20078;-84
2023/09/10 05:29:33;;;;;;;9.90;4.50;;;20.40;99.90;;;;;;5094619;28;20078;-78
2023/09/10 05:31:58;;;;;;;9.48;4.03;;;20.60;99.90;;;;;;5091449;28;20032;-79
2023/09/10 05:34:24;;;;;;;11.68;4.40;;;21.00;99.90;;;;;;5091301;28;20107;-81
2023/09/10 05:36:51;;;;;;;9.43;3.92;;;21.40;99.90;;;;;;5092365;28;20577;-82
2023/09/10 05:39:17;;;;;;;9.70;3.40;;;21.70;99.90;;;;;;5092158;28;20134;-80
2023/09/10 05:41:42;;;;;;;7.80;3.72;;;22.00;99.90;;;;;;5091534;28;20489;-80
2023/09/10 05:44:08;;;;;;;11.63;3.55;;;22.10;99.90;;;;;;5092386;28;20038;-80
2023/09/10 05:46:33;;;;;;;11.75;3.83;;;22.30;99.90;;;;;;5092411;28;20055;-81
2023/09/10 05:48:59;;;;;;;4.80;3.45;;;22.60;99.90;;;;;;5090854;28;20123;-80
2023/09/10 05:51:25;;;;;;;11.25;4.32;;;22.70;99.90;;;;;;5092419;28;20055;-81
2023/09/10 05:53:50;;;;;;;5.93;4.28;;;22.90;99.90;;;;;;5091746;28;20028;-78
2023/09/10 05:56:16;;;;;;;8.20;3.72;;;22.80;99.90;;;;;;5092170;28;20036;-81
2023/09/10 05:58:42;;;;;;;7.28;4.45;;;22.80;99.90;;;;;;5091131;28;20031;-80
2023/09/10 06:01:08;;;;;;;9.40;4.45;;;22.90;99.90;;;;;;5090745;28;20032;-80
2023/09/10 06:03:33;;;;;;;5.43;4.13;;;23.10;99.90;;;;;;5090867;28;20077;-81
2023/09/10 06:06:01;;;;;;;11.90;4.28;;;23.30;99.90;;;;;;5091188;28;20050;-81
2023/09/10 06:08:30;;;;;;;7.65;3.85;;;23.40;99.20;;;;;;5090498;28;20020;-81
2023/09/10 06:10:56;;;;;;;7.00;3.95;;;23.60;98.70;;;;;;5090526;28;20044;-80
2023/09/10 06:13:22;;;;;;;5.90;3.70;;;23.80;97.90;;;;;;5089029;28;20416;-81
2023/09/10 06:15:47;;;;;;;6.43;4.05;;;24.30;96.60;;;;;;5089913;28;20058;-81
2023/09/10 06:18:13;;;;;;;5.88;3.85;;;24.60;95.60;;;;;;5088897;28;20082;-82
2023/09/10 06:20:39;;;;;;;12.15;4.68;;;25.10;94.60;;;;;;5088458;28;20429;-79
2023/09/10 06:23:04;;;;;;;11.77;5.20;;;25.60;92.70;;;;;;5088074;28;20505;-81
2023/09/10 06:25:30;;;;;;;9.48;4.72;;;26.20;91.30;;;;;;5090201;28;20078;-80
2023/09/10 06:27:56;;;;;;;13.20;4.72;;;26.60;88.30;;;;;;5091782;28;20020;-81
2023/09/10 06:30:21;;;;;;;8.23;4.53;;;27.00;85.50;;;;;;5091375;28;20036;-80
2023/09/10 06:32:50;;;;;;;9.52;4.38;;;27.60;82.60;;;;;;5091257;28;20123;-80
2023/09/10 06:35:15;;;;;;;11.07;4.55;;;28.00;79.00;;;;;;5089962;28;20028;-79
2023/09/10 06:37:42;;;;;;;6.03;4.20;;;28.40;76.60;;;;;;5089827;28;20073;-79
2023/09/10 06:40:09;;;;;;;6.38;3.80;;;28.80;74.20;;;;;;5091211;28;20032;-80
2023/09/10 06:42:35;;;;;;;6.78;3.75;;;29.20;70.90;;;;;;5091344;28;20017;-81
2023/09/10 06:45:00;;;;;;;5.32;3.45;;;29.40;67.90;;;;;;5089701;28;20620;-79
2023/09/10 06:47:27;;;;;;;6.80;3.47;;;29.50;65.70;;;;;;5091115;28;20055;-79
2023/09/10 06:49:53;;;;;;;8.93;4.15;;;29.80;63.50;;;;;;5091022;28;20031;-81
2023/09/10 06:52:18;;;;;;;13.32;3.65;;;30.10;61.70;;;;;;5090621;28;20032;-80
2023/09/10 06:54:44;;;;;;;8.60;3.22;;;30.40;61.40;;;;;;5090999;28;20445;-80
2023/09/10 06:57:10;;;;;;;5.05;3.38;;;30.70;60.20;;;;;;5089819;28;20042;-81
2023/09/10 06:59:35;;;;;;;10.65;3.30;;;31.10;58.10;;;;;;5090724;28;20415;-80
2023/09/10 07:02:01;;;;;;;4.60;3.13;;;31.40;55.40;;;;;;5091057;28;20408;-80
2023/09/10 07:04:27;;;;;;;9.27;3.30;;;31.60;55.50;;;;;;5090756;28;20145;-82
2023/09/10 07:06:53;;;;;;;8.02;3.65;;;31.90;54.20;;;;;;5090515;28;20107;-81
2023/09/10 07:09:22;;;;;;;14.95;3.40;;;32.20;52.50;;;;;;5090634;28;20480;-81
2023/09/10 07:11:53;;;;;;;13.88;3.78;;;32.30;52.30;;;;;;5089315;28;20419;-81
2023/09/10 07:14:21;;;;;;;8.68;3.45;;;32.70;50.70;;;;;;5089916;28;20028;-81
2023/09/10 07:16:47;;;;;;;11.30;3.97;;;33.20;50.20;;;;;;5089018;28;20116;-79
2023/09/10 07:19:13;;;;;;;6.88;3.65;;;33.10;49.20;;;;;;5090554;28;20028;-81
2023/09/10 07:21:39;;;;;;;4.88;3.47;;;33.20;48.90;;;;;;5089261;28;20028;-82
2023/09/10 07:24:06;;;;;;;6.50;3.70;;;33.50;49.10;;;;;;5091996;28;20026;-84
2023/09/10 07:26:36;;;;;;;9.77;3.10;;;33.70;48.40;;;;;;5092941;28;20125;-82
2023/09/10 07:29:04;;;;;;;8.93;3.53;;;33.80;47.30;;;;;;5092022;28;20548;-83
2023/09/10 07:31:30;;;;;;;13.88;3.88;;;34.00;47.30;;;;;;5092029;28;20044;-83
2023/09/10 07:33:55;;;;;;;7.80;3.30;;;34.20;47.10;;;;;;5091637;28;20024;-81
2023/09/10 07:36:21;;;;;;;6.00;3.30;;;34.40;45.90;;;;;;5089397;28;20032;-83
2023/09/10 07:38:48;;;;;;;12.45;2.95;;;34.60;45.20;;;;;;5091166;28;20020;-83
2023/09/10 07:41:14;;;;;;;9.27;3.80;;;34.80;44.90;;;;;;5091656;28;20024;-83
2023/09/10 07:43:39;;;;;;;10.20;3.83;;;35.10;44.50;;;;;;5090217;28;20077;-82
2023/09/10 07:46:05;;;;;;;16.60;4.25;;;35.30;44.60;;;;;;5090781;28;20036;-83
2023/09/10 07:48:31;;;;;;;13.48;3.75;;;35.10;43.80;;;;;;5091636;28;20024;-84
2023/09/10 07:50:57;;;;;;;8.50;3.63;;;35.10;43.00;;;;;;5091790;28;20040;-82
2023/09/10 07:53:24;;;;;;;12.57;3.38;;;35.50;42.90;;;;;;5090370;28;20016;-84
2023/09/10 07:55:49;;;;;;;14.93;3.58;;;35.60;42.50;;;;;;5090586;28;20515;-85
2023/09/10 07:58:15;;;;;;;10.15;3.90;;;35.90;42.50;;;;;;5091048;28;20028;-84
2023/09/10 08:00:41;;;;;;;6.32;3.78;;;36.10;41.80;;;;;;5090554;28;20035;-85
2023/09/10 08:03:07;;;;;;;10.52;3.20;;;36.40;41.20;;;;;;5091536;28;20435;-82
2023/09/10 08:05:33;;;;;;;9.80;4.07;;;36.30;41.20;;;;;;5091552;28;20077;-86
2023/09/10 08:08:03;;;;;;;12.85;4.07;;;36.00;40.30;;;;;;5089564;28;20066;-82
2023/09/10 08:10:33;;;;;;;7.32;3.55;;;36.30;40.70;;;;;;5089206;28;20079;-81
2023/09/10 08:12:59;;;;;;;9.73;3.70;;;36.40;40.60;;;;;;5089577;28;20103;-83
2023/09/10 08:15:25;;;;;;;10.50;3.88;;;36.30;40.90;;;;;;5090342;28;20048;-82
2023/09/10 08:17:55;;;;;;;6.78;3.22;;;36.20;39.70;;;;;;5090013;28;20400;-83
2023/09/10 08:20:22;;;;;;;7.63;3.72;;;36.20;39.00;;;;;;5089339;28;20070;-81
2023/09/10 08:22:47;;;;;;;4.20;2.72;;;36.00;40.60;;;;;;5090552;28;20020;-82
2023/09/10 08:25:13;;;;;;;7.47;3.40;;;35.90;41.00;;;;;;5090893;28;20516;-83
2023/09/10 08:27:39;;;;;;;15.45;4.30;;;36.00;41.30;;;;;;5090907;28;20099;-84
2023/09/10 08:30:07;;;;;;;6.30;3.67;;;35.90;41.20;;;;;;5091618;28;20404;-83
2023/09/10 08:32:37;;;;;;;10.13;3.38;;;36.00;40.90;;;;;;5089656;28;20131;-83
2023/09/10 08:35:04;;;;;;;12.18;3.78;;;36.10;40.80;;;;;;5089374;28;20035;-83
2023/09/10 08:37:29;;;;;;;11.02;4.57;;;36.10;40.20;;;;;;5090136;28;20016;-82
2023/09/10 08:39:55;;;;;;;8.43;3.47;;;36.00;40.30;;;;;;5089049;28;20028;-83
2023/09/10 08:42:37;;;;;;;11.52;3.70;;;36.20;40.20;;;;;;5091461;28;20059;-84
2023/09/10 08:45:07;;;;;;;9.07;3.75;;;36.10;39.80;;;;;;5091309;28;20480;-84
2023/09/10 08:47:40;;;;;;;14.65;3.63;;;36.00;40.70;;;;;;5091531;28;20028;-84
2023/09/10 08:50:14;;;;;;;9.65;4.03;;;35.70;41.00;;;;;;5091862;28;20043;-82
2023/09/10 08:52:44;;;;;;;7.13;3.42;;;35.70;41.00;;;;;;5089642;28;20016;-82
2023/09/10 08:55:11;;;;;;;6.30;3.58;;;35.80;40.40;;;;;;5089808;28;20020;-82
2023/09/10 08:57:39;;;;;;;8.70;3.40;;;36.00;40.30;;;;;;5089688;28;20024;-80
2023/09/10 09:00:12;;;;;;;15.85;3.75;;;36.20;40.20;;;;;;5088028;28;20081;-83
2023/09/10 09:02:42;;;;;;;8.77;3.97;;;36.30;40.50;;;;;;5089798;28;20091;-81
2023/09/10 09:05:08;;;;;;;7.88;3.75;;;36.50;39.80;;;;;;5088207;28;20039;-81
2023/09/10 09:07:54;;;;;;;11.40;3.63;;;36.30;39.60;;;;;;5088967;28;20020;-81
2023/09/10 09:10:26;;;;;;;6.63;3.97;;;36.30;40.80;;;;;;5088608;28;20024;-80
2023/09/10 09:13:01;;;;;;;12.73;3.90;;;36.30;40.40;;;;;;5087367;28;20032;-80
2023/09/10 09:15:27;;;;;;;12.07;4.50;;;36.50;40.00;;;;;;5086999;28;20051;-79
2023/09/10 09:17:56;;;;;;;6.55;3.30;;;36.40;39.70;;;;;;5089124;28;20054;-84
2023/09/10 09:20:23;;;;;;;13.73;4.47;;;36.60;40.20;;;;;;5088191;28;20081;-82
2023/09/10 09:23:03;;;;;;;18.08;4.18;;;36.80;40.20;;;;;;5088147;28;20016;-81
2023/09/10 09:25:29;;;;;;;14.38;3.65;;;37.00;39.70;;;;;;5089052;28;20070;-82
2023/09/10 09:27:56;;;;;;;11.20;3.38;;;36.90;39.70;;;;;;5087897;28;20052;-81
2023/09/10 09:30:22;;;;;;;7.32;3.78;;;37.00;39.20;;;;;;5089298;28;20055;-82
2023/09/10 09:32:49;;;;;;;9.15;3.88;;;37.00;39.00;;;;;;5089041;28;20111;-81
2023/09/10 09:35:14;;;;;;;9.82;3.78;;;36.90;38.30;;;;;;5088709;28;20028;-80
2023/09/10 09:37:41;;;;;;;8.82;3.92;;;36.60;38.90;;;;;;5087223;28;20066;-81
2023/09/10 09:40:09;;;;;;;8.98;4.00;;;36.50;39.60;;;;;;5088661;28;20020;-81
2023/09/10 09:42:36;;;;;;;11.98;3.72;;;36.60;39.70;;;;;;5088824;28;20420;-83
2023/09/10 09:45:03;;;;;;;9.82;3.65;;;36.70;38.80;;;;;;5088016;28;20067;-82
2023/09/10 09:47:30;;;;;;;9.00;3.90;;;36.50;39.20;;;;;;5089428;28;20526;-83
2023/09/10 09:49:57;;;;;;;13.13;3.72;;;36.70;38.60;;;;;;5089646;28;20477;-81
2023/09/10 09:52:23;;;;;;;10.35;3.75;;;36.60;39.00;;;;;;5088426;28;20089;-82
2023/09/10 09:54:49;;;;;;;6.07;3.67;;;36.90;39.80;;;;;;5089743;28;20012;-83
2023/09/10 09:57:15;;;;;;;8.90;3.50;;;37.00;39.30;;;;;;5089958;28;20031;-81
2023/09/10 09:59:41;;;;;;;9.00;3.17;;;37.10;38.80;;;;;;5091036;28;20070;-80
2023/09/10 10:02:15;;;;;;;12.82;4.10;;;37.10;38.60;;;;;;5092184;28;20043;-82
2023/09/10 10:04:42;;;;;;;9.65;3.90;;;37.30;38.30;;;;;;5090781;28;20492;-78
2023/09/10 10:07:19;;;;;;;12.00;3.45;;;37.30;37.60;;;;;;5090698;28;20040;-78
2023/09/10 10:09:45;;;;;;;7.30;3.65;;;37.10;38.60;;;;;;5091628;28;20085;-79
2023/09/10 10:12:11;;;;;;;7.00;3.42;;;37.30;38.70;;;;;;5089905;28;20032;-80
2023/09/10 10:14:37;;;;;;;5.72;3.28;;;37.20;38.10;;;;;;5091539;28;20647;-79
2023/09/10 10:17:04;;;;;;;8.25;3.55;;;37.40;38.80;;;;;;5090147;28;20204;-80
2023/09/10 10:19:31;;;;;;;16.83;4.05;;;37.30;38.60;;;;;;5090429;28;20032;-78
2023/09/10 10:21:58;;;;;;;6.43;3.65;;;37.00;38.40;;;;;;5091462;28;20551;-78
2023/09/10 10:24:24;;;;;;;6.80;3.65;;;36.30;39.10;;;;;;5091455;28;20434;-80
2023/09/10 10:26:51;;;;;;;6.13;2.70;;;35.60;40.50;;;;;;5090040;28;20035;-79
2023/09/10 10:29:21;;;;;;;10.27;3.65;;;34.90;41.20;;;;;;5091508;28;20400;-79
2023/09/10 10:31:54;;;;;;;4.75;3.17;;;34.40;41.90;;;;;;5089800;28;20036;-78
2023/09/10 10:34:23;;;;;;;7.85;3.40;;;34.00;42.70;;;;;;5090086;28;20080;-77
2023/09/10 10:37:22;;;;;;;18.60;4.45;;;33.60;43.10;;;;;;5091248;28;20028;-77
2023/09/10 10:40:05;;;;;;;7.10;3.90;;;33.20;43.40;;;;;;5091184;28;20035;-77
2023/09/10 10:42:44;;;;;;;9.75;4.10;;;32.70;44.40;;;;;;5091208;28;20032;-77
2023/09/10 10:45:15;;;;;;;8.52;3.20;;;32.50;45.50;;;;;;5090745;28;20031;-77
2023/09/10 10:47:42;;;;;;;8.75;3.70;;;32.10;47.00;;;;;;5089555;28;20032;-76
2023/09/10 10:50:12;;;;;;;8.50;3.58;;;31.80;47.10;;;;;;5089647;28;20035;-77
2023/09/10 10:52:58;;;;;;;10.68;3.53;;;31.80;47.70;;;;;;5090953;28;20107;-78
2023/09/10 10:55:25;;;;;;;11.45;4.03;;;31.70;47.70;;;;;;5089564;28;20599;-80
2023/09/10 10:57:54;;;;;;;9.10;4.15;;;31.60;47.20;;;;;;5090883;28;20542;-77
2023/09/10 11:00:21;;;;;;;5.30;3.55;;;31.40;47.00;;;;;;5088512;28;20074;-80
2023/09/10 11:03:11;;;;;;;7.70;4.00;;;31.20;47.40;;;;;;5089154;28;20081;-77
2023/09/10 11:05:53;;;;;;;7.80;3.58;;;31.20;48.40;;;;;;5090720;28;20028;-80
2023/09/10 11:08:42;;;;;;;5.82;2.97;;;31.10;49.10;;;;;;5090510;28;20387;-79
2023/09/10 11:11:09;;;;;;;9.85;4.35;;;31.10;49.10;;;;;;5090420;28;20040;-81
2023/09/10 11:14:09;;;;;;;5.75;3.28;;;31.10;49.70;;;;;;5089247;28;20020;-79
2023/09/10 11:16:36;;;;;;;5.57;3.55;;;31.10;48.90;;;;;;5089137;28;20163;-78
2023/09/10 11:19:03;;;;;;;6.18;3.58;;;31.00;48.60;;;;;;5089403;28;20035;-80
2023/09/10 11:21:53;;;;;;;8.93;4.20;;;31.00;50.30;;;;;;5090412;28;20031;-79
2023/09/10 11:24:19;;;;;;;8.23;3.88;;;30.90;49.60;;;;;;5089007;28;20031;-80
2023/09/10 11:26:44;;;;;;;10.27;4.22;;;30.60;49.10;;;;;;5089088;28;20051;-79
2023/09/10 11:29:18;;;;;;;5.32;3.88;;;30.40;50.40;;;;;;5089001;28;20031;-81
2023/09/10 11:31:48;;;;;;;6.80;3.70;;;30.30;51.40;;;;;;5090446;28;20036;-79
2023/09/10 11:36:44;;;;;;;6.90;4.00;;;30.50;51.80;;;;;;5090428;28;20559;-78
2023/09/10 11:39:11;;;;;;;5.65;3.47;;;30.50;51.90;;;;;;5088706;28;20028;-78
2023/09/10 11:41:37;;;;;;;5.45;3.45;;;30.60;51.60;;;;;;5089998;28;20571;-79
2023/09/10 11:44:03;;;;;;;6.43;2.85;;;30.70;52.00;;;;;;5088613;28;20111;-80
2023/09/10 11:46:29;;;;;;;8.93;3.13;;;30.70;51.40;;;;;;5089945;28;20481;-79
2023/09/10 11:48:54;;;;;;;7.45;3.92;;;30.70;51.20;;;;;;5089991;28;20023;-79
2023/09/10 11:51:20;;;;;;;5.97;3.00;;;30.80;51.80;;;;;;5088411;28;20036;-79
2023/09/10 11:53:46;;;;;;;5.28;3.42;;;30.70;51.20;;;;;;5089480;28;20028;-80
2023/09/10 11:56:12;;;;;;;9.07;3.78;;;30.70;51.20;;;;;;5088372;28;20068;-78
2023/09/10 11:58:38;;;;;;;11.45;3.80;;;30.80;51.20;;;;;;5088164;28;20516;-79
2023/09/10 12:01:04;;;;;;;11.85;3.78;;;30.70;50.60;;;;;;5088068;28;20527;-80
2023/09/10 12:03:33;;;;;;;10.75;4.00;;;30.70;51.60;;;;;;5089281;28;20035;-79
2023/09/10 12:05:59;;;;;;;5.30;3.45;;;30.70;51.40;;;;;;5087615;28;20131;-80
2023/09/10 12:08:24;;;;;;;8.07;3.67;;;30.70;51.20;;;;;;5089361;28;20107;-79
2023/09/10 12:10:58;;;;;;;7.75;3.05;;;30.70;51.20;;;;;;5089223;28;20040;-79
2023/09/10 12:13:24;;;;;;;8.18;3.55;;;30.70;51.50;;;;;;5089344;28;20020;-80
2023/09/10 12:15:52;;;;;;;11.98;3.22;;;30.70;50.70;;;;;;5087644;28;20066;-79
2023/09/10 12:18:18;;;;;;;6.80;2.53;;;30.70;51.60;;;;;;5089189;28;20028;-79
2023/09/10 12:20:44;;;;;;;7.68;4.22;;;30.50;51.50;;;;;;5088037;28;20028;-80
2023/09/10 12:23:10;;;;;;;5.07;3.05;;;30.60;51.40;;;;;;5088697;28;20031;-80
2023/09/10 12:25:36;;;;;;;8.15;4.32;;;30.50;51.30;;;;;;5087566;28;20035;-79
2023/09/10 12:28:02;;;;;;;8.00;3.92;;;30.60;51.70;;;;;;5087804;28;20873;-80
2023/09/10 12:30:28;;;;;;;5.85;3.38;;;30.60;52.00;;;;;;5087607;28;20031;-80
2023/09/10 12:32:54;;;;;;;8.07;3.70;;;30.70;51.30;;;;;;5087690;28;20089;-80
2023/09/10 12:35:21;;;;;;;7.20;3.30;;;30.60;51.20;;;;;;5087669;28;20020;-79
2023/09/10 12:37:51;;;;;;;6.85;4.28;;;30.70;51.00;;;;;;5088938;28;20024;-80
2023/09/10 12:40:21;;;;;;;30.27;4.30;;;30.70;51.00;;;;;;5088597;28;20023;-80
2023/09/10 12:42:50;;;;;;;5.05;3.60;;;30.70;51.00;;;;;;5087554;28;20464;-80
2023/09/10 12:45:17;;;;;;;11.48;3.58;;;30.70;51.60;;;;;;5088737;28;20024;-80
2023/09/10 12:47:44;;;;;;;6.35;3.70;;;30.80;51.20;;;;;;5087464;28;20552;-79
2023/09/10 12:50:10;;;;;;;9.00;3.15;;;30.80;50.10;;;;;;5087362;28;20036;-80